Time;durP1;ratioP1;P1;durP2;ratioP2;P2;SDS_P1;SDS_P2;PMS_P1;PMS_P2;Temp;Humidity;BMP_temperature;BMP_pressure;BME280_temperature;BME280_humidity;BME280_pressure;Samples;Min_cycle;Max_cycle;Signal;HPM_P1;HPM_P2
2022/08/05 00:00:52;;;;;;;3.9;3.3;;;;;;;;;;;;;
2022/08/05 00:03:18;;;;;;;4.7;3.3;;;;;;;;;;;;;
2022/08/05 00:05:44;;;;;;;3.2;2.9;;;;;;;;;;;;;
2022/08/05 00:08:09;;;;;;;3.9;2.8;;;;;;;;;;;;;
2022/08/05 00:10:34;;;;;;;3.6;3;;;;;;;;;;;;;
2022/08/05 00:13:02;;;;;;;3.7;3.3;;;;;;;;;;;;;
2022/08/05 00:15:27;;;;;;;3.7;3;;;;;;;;;;;;;
2022/08/05 00:17:52;;;;;;;2.9;2.7;;;;;;;;;;;;;
2022/08/05 00:20:17;;;;;;;5.9;3.2;;;;;;;;;;;;;
2022/08/05 00:22:43;;;;;;;3.5;3.1;;;;;;;;;;;;;
2022/08/05 00:25:07;;;;;;;4;2.8;;;;;;;;;;;;;
2022/08/05 00:27:37;;;;;;;3.7;3.2;;;;;;;;;;;;;
2022/08/05 00:30:02;;;;;;;4.3;3.2;;;;;;;;;;;;;
2022/08/05 00:32:28;;;;;;;3.9;3.4;;;;;;;;;;;;;
2022/08/05 00:34:53;;;;;;;4.1;3.2;;;;;;;;;;;;;
2022/08/05 00:37:19;;;;;;;3.7;3.3;;;;;;;;;;;;;
2022/08/05 00:39:44;;;;;;;3.3;3;;;;;;;;;;;;;
2022/08/05 00:42:11;;;;;;;8.3;4.1;;;;;;;;;;;;;
2022/08/05 00:44:37;;;;;;;4.7;3.4;;;;;;;;;;;;;
2022/08/05 00:47:02;;;;;;;4.2;3.4;;;;;;;;;;;;;
2022/08/05 00:49:28;;;;;;;5.3;3.3;;;;;;;;;;;;;
2022/08/05 00:51:53;;;;;;;3.6;3.3;;;;;;;;;;;;;
2022/08/05 00:54:19;;;;;;;3.7;3.1;;;;;;;;;;;;;
2022/08/05 00:56:43;;;;;;;3.9;3.2;;;;;;;;;;;;;
2022/08/05 00:59:10;;;;;;;3.6;3.2;;;;;;;;;;;;;
2022/08/05 01:01:36;;;;;;;3;2.8;;;;;;;;;;;;;
2022/08/05 01:04:03;;;;;;;3.8;3.4;;;;;;;;;;;;;
2022/08/05 01:06:28;;;;;;;3.5;3.2;;;;;;;;;;;;;
2022/08/05 01:08:53;;;;;;;4.1;3.7;;;;;;;;;;;;;
2022/08/05 01:11:18;;;;;;;3.5;3.2;;;;;;;;;;;;;
2022/08/05 01:13:44;;;;;;;5.4;3.5;;;;;;;;;;;;;
2022/08/05 01:16:09;;;;;;;3.5;3.2;;;;;;;;;;;;;
2022/08/05 01:18:34;;;;;;;4.3;3.5;;;;;;;;;;;;;
2022/08/05 01:21:00;;;;;;;4.3;3.6;;;;;;;;;;;;;
2022/08/05 01:23:25;;;;;;;3.8;3.4;;;;;;;;;;;;;
2022/08/05 01:25:51;;;;;;;4.7;3.4;;;;;;;;;;;;;
2022/08/05 01:28:15;;;;;;;3.7;3.3;;;;;;;;;;;;;
2022/08/05 01:30:41;;;;;;;3.8;3.5;;;;;;;;;;;;;
2022/08/05 01:33:06;;;;;;;4.6;3.4;;;;;;;;;;;;;
2022/08/05 01:35:31;;;;;;;5.2;3.5;;;;;;;;;;;;;
2022/08/05 01:37:59;;;;;;;4.2;3.2;;;;;;;;;;;;;
2022/08/05 01:40:25;;;;;;;4.6;3.5;;;;;;;;;;;;;
2022/08/05 01:42:50;;;;;;;3.7;3.4;;;;;;;;;;;;;
2022/08/05 01:45:15;;;;;;;4.1;3.7;;;;;;;;;;;;;
2022/08/05 01:47:42;;;;;;;3.7;3.4;;;;;;;;;;;;;
2022/08/05 01:50:07;;;;;;;3.6;3.2;;;;;;;;;;;;;
2022/08/05 01:52:33;;;;;;;5.1;3.6;;;;;;;;;;;;;
2022/08/05 01:54:58;;;;;;;3.9;3.5;;;;;;;;;;;;;
2022/08/05 01:57:25;;;;;;;4.4;3.4;;;;;;;;;;;;;
2022/08/05 01:59:50;;;;;;;5.2;3.7;;;;;;;;;;;;;
2022/08/05 02:02:15;;;;;;;3.3;3;;;;;;;;;;;;;
2022/08/05 02:04:40;;;;;;;3.9;3.5;;;;;;;;;;;;;
2022/08/05 02:07:06;;;;;;;5.9;3.5;;;;;;;;;;;;;
2022/08/05 02:09:31;;;;;;;5.7;3.5;;;;;;;;;;;;;
2022/08/05 02:11:57;;;;;;;4.2;3.7;;;;;;;;;;;;;
2022/08/05 02:14:22;;;;;;;4.6;3.3;;;;;;;;;;;;;
2022/08/05 02:16:47;;;;;;;3.4;3.1;;;;;;;;;;;;;
2022/08/05 02:19:12;;;;;;;3.6;3.3;;;;;;;;;;;;;
2022/08/05 02:21:40;;;;;;;4.3;3.4;;;;;;;;;;;;;
2022/08/05 02:24:05;;;;;;;4.2;3.3;;;;;;;;;;;;;
2022/08/05 02:26:30;;;;;;;3.7;2.9;;;;;;;;;;;;;
2022/08/05 02:28:55;;;;;;;3.8;3.4;;;;;;;;;;;;;
2022/08/05 02:31:20;;;;;;;3.6;3.3;;;;;;;;;;;;;
2022/08/05 02:33:46;;;;;;;4.1;3.4;;;;;;;;;;;;;
2022/08/05 02:36:11;;;;;;;3.6;3.1;;;;;;;;;;;;;
2022/08/05 02:38:37;;;;;;;3.2;3;;;;;;;;;;;;;
2022/08/05 02:41:02;;;;;;;4.9;3.3;;;;;;;;;;;;;
2022/08/05 02:43:29;;;;;;;3.9;3.2;;;;;;;;;;;;;
2022/08/05 02:45:54;;;;;;;3.3;3;;;;;;;;;;;;;
2022/08/05 02:48:21;;;;;;;5.8;3.7;;;;;;;;;;;;;
2022/08/05 02:50:46;;;;;;;6;4.1;;;;;;;;;;;;;
2022/08/05 02:53:10;;;;;;;8.2;4.5;;;;;;;;;;;;;
2022/08/05 02:55:36;;;;;;;6.3;4;;;;;;;;;;;;;
2022/08/05 02:58:02;;;;;;;7.6;4.5;;;;;;;;;;;;;
2022/08/05 03:00:27;;;;;;;5.7;3.9;;;;;;;;;;;;;
2022/08/05 03:02:53;;;;;;;4.2;3.2;;;;;;;;;;;;;
2022/08/05 03:05:19;;;;;;;4.5;3.5;;;;;;;;;;;;;
2022/08/05 03:07:44;;;;;;;5.5;3.6;;;;;;;;;;;;;
2022/08/05 03:10:09;;;;;;;7.4;4;;;;;;;;;;;;;
2022/08/05 03:12:38;;;;;;;4.7;3.3;;;;;;;;;;;;;
2022/08/05 03:15:04;;;;;;;3.7;3.3;;;;;;;;;;;;;
2022/08/05 03:17:32;;;;;;;4.1;3.7;;;;;;;;;;;;;
2022/08/05 03:19:57;;;;;;;4.2;3.5;;;;;;;;;;;;;
2022/08/05 03:22:22;;;;;;;4.1;3.3;;;;;;;;;;;;;
2022/08/05 03:24:47;;;;;;;5.8;3.3;;;;;;;;;;;;;
2022/08/05 03:27:14;;;;;;;4.9;3.9;;;;;;;;;;;;;
2022/08/05 03:29:39;;;;;;;3.9;3.2;;;;;;;;;;;;;
2022/08/05 03:32:04;;;;;;;8.1;3.7;;;;;;;;;;;;;
2022/08/05 03:34:29;;;;;;;3.6;3.1;;;;;;;;;;;;;
2022/08/05 03:36:57;;;;;;;3.8;3.2;;;;;;;;;;;;;
2022/08/05 03:39:22;;;;;;;4.1;3.3;;;;;;;;;;;;;
2022/08/05 03:41:47;;;;;;;3.8;3.1;;;;;;;;;;;;;
2022/08/05 03:44:12;;;;;;;3.7;3.4;;;;;;;;;;;;;
2022/08/05 03:46:41;;;;;;;4.3;3.2;;;;;;;;;;;;;
2022/08/05 03:49:06;;;;;;;4.6;3.3;;;;;;;;;;;;;
2022/08/05 03:51:32;;;;;;;5.8;3.5;;;;;;;;;;;;;
2022/08/05 03:53:57;;;;;;;3.2;2.9;;;;;;;;;;;;;
2022/08/05 03:56:22;;;;;;;3.6;3.3;;;;;;;;;;;;;
2022/08/05 03:58:49;;;;;;;4.3;3.3;;;;;;;;;;;;;
2022/08/05 04:02:35;;;;;;;5.4;3.4;;;;;;;21.56;76.55078;936.7701;;;;
2022/08/05 04:05:01;;;;;;;6.9;3.6;;;;;;;21.5;76.54199;936.7902;;;;
2022/08/05 04:07:28;;;;;;;4.4;3.1;;;;;;;21.53;76.30176;936.7696;;;;
2022/08/05 04:09:59;;;;;;;7.2;3.7;;;;;;;21.55;76.11816;936.7722;;;;
2022/08/05 04:12:24;;;;;;;3.9;3.6;;;;;;;21.56;75.87207;936.7275;;;;
2022/08/05 04:14:53;;;;;;;4.1;3.2;;;;;;;21.6;75.64551;936.7567;;;;
2022/08/05 04:17:18;;;;;;;4.8;3.7;;;;;;;21.63;75.62695;936.7422;;;;
2022/08/05 04:19:48;;;;;;;5.8;4.6;;;;;;;21.68;75.40039;936.7008;;;;
2022/08/05 04:22:13;;;;;;;8;6.2;;;;;;;21.71;75.41797;936.7513;;;;
2022/08/05 04:24:44;;;;;;;7.4;5.7;;;;;;;21.71;75.34766;936.7564;;;;
2022/08/05 04:27:11;;;;;;;8.4;6.7;;;;;;;21.68;75.64746;936.7922;;;;
2022/08/05 04:29:43;;;;;;;8.6;5.6;;;;;;;21.55;76.35059;936.8089;;;;
2022/08/05 04:32:12;;;;;;;7.8;5.2;;;;;;;21.58;76.22852;936.8514;;;;
2022/08/05 04:34:37;;;;;;;7;4.9;;;;;;;21.58;76.09766;936.7941;;;;
2022/08/05 04:37:06;;;;;;;6.5;4.6;;;;;;;21.61;75.9502;936.8011;;;;
2022/08/05 04:39:37;;;;;;;5.4;4;;;;;;;21.59;76.2627;936.8884;;;;
2022/08/05 04:42:08;;;;;;;4.9;3.4;;;;;;;21.57;75.89746;936.8438;;;;
2022/08/05 04:44:37;;;;;;;5.5;3.8;;;;;;;21.64;75.80371;936.8504;;;;
2022/08/05 04:47:02;;;;;;;4.8;3.6;;;;;;;21.69;75.9873;936.865;;;;
2022/08/05 04:49:29;;;;;;;4.6;3.7;;;;;;;21.77;76.05957;936.9365;;;;
2022/08/05 04:51:54;;;;;;;5.2;3.6;;;;;;;21.85;76.83496;936.986;;;;
2022/08/05 04:54:25;;;;;;;4.4;3.7;;;;;;;21.8;75.79688;936.954;;;;
2022/08/05 04:56:47;;;;;;;4.6;3.7;;;;;;;21.78;76.1084;937.0109;;;;
2022/08/05 04:59:16;;;;;;;5.3;3.9;;;;;;;21.8;75.44531;936.9525;;;;
2022/08/05 05:01:40;;;;;;;7.2;3.4;;;;;;;21.85;75.19531;937.0223;;;;
2022/08/05 05:04:09;;;;;;;5.8;3.4;;;;;;;21.97;75.36914;937.0341;;;;
2022/08/05 05:06:40;;;;;;;4.4;3.4;;;;;;;22.07;75.16309;937.0262;;;;
2022/08/05 05:09:05;;;;;;;3.9;3.3;;;;;;;22.15;75.23438;937.128;;;;
2022/08/05 05:11:31;;;;;;;3.1;2.8;;;;;;;22.13;75.55957;937.1353;;;;
2022/08/05 05:13:56;;;;;;;3.8;3.1;;;;;;;22.19;75.35742;937.1818;;;;
2022/08/05 05:16:24;;;;;;;3.4;3;;;;;;;22.2;75.1377;937.1894;;;;
2022/08/05 05:18:49;;;;;;;4.7;3.3;;;;;;;22.26;74.73633;937.134;;;;
2022/08/05 05:21:19;;;;;;;5.7;3;;;;;;;22.24;75.0498;937.1923;;;;
2022/08/05 05:23:50;;;;;;;3.6;2.9;;;;;;;22.34;74.44531;937.1845;;;;
2022/08/05 05:26:19;;;;;;;4.5;3.1;;;;;;;22.35;75.12793;937.2229;;;;
2022/08/05 05:28:44;;;;;;;4.4;3.1;;;;;;;22.43;75.55273;937.2574;;;;
2022/08/05 05:31:13;;;;;;;4.5;3.3;;;;;;;22.66;75.7793;937.2408;;;;
2022/08/05 05:33:42;;;;;;;4.7;3.5;;;;;;;23.28;71.62988;937.2537;;;;
2022/08/05 05:36:07;;;;;;;3.8;3.4;;;;;;;23.54;71.0957;937.2433;;;;
2022/08/05 05:38:36;;;;;;;3.4;3.1;;;;;;;24.39;69.98242;937.1735;;;;
2022/08/05 05:41:05;;;;;;;5.5;3.2;;;;;;;25.41;65.25098;937.2408;;;;
2022/08/05 05:43:30;;;;;;;5.3;3;;;;;;;26.75;59.47852;937.2775;;;;
2022/08/05 05:46:00;;;;;;;2.7;2.5;;;;;;;27.89;53.87988;937.2747;;;;
2022/08/05 05:48:30;;;;;;;4.6;2.6;;;;;;;28.63;52.96973;937.2709;;;;
2022/08/05 05:50:58;;;;;;;4.4;2.4;;;;;;;29.04;50.48145;937.3211;;;;
2022/08/05 05:53:24;;;;;;;2.9;2.6;;;;;;;30.15;47.75293;937.3964;;;;
2022/08/05 05:55:53;;;;;;;3;2.7;;;;;;;30.63;45.0332;937.3424;;;;
2022/08/05 05:58:18;;;;;;;2.5;2.3;;;;;;;30.2;45.15723;937.3311;;;;
2022/08/05 06:00:46;;;;;;;2.7;2.5;;;;;;;30.79;44.53418;937.2708;;;;
2022/08/05 06:03:17;;;;;;;6;2.4;;;;;;;31.15;44.86914;937.2043;;;;
2022/08/05 06:05:47;;;;;;;2.7;2.2;;;;;;;32.47;41.29297;937.1605;;;;
2022/08/05 06:08:12;;;;;;;2.6;2.1;;;;;;;33.28;40.93359;937.1508;;;;
2022/08/05 06:10:42;;;;;;;3;2.4;;;;;;;33.85;39.25195;937.1473;;;;
2022/08/05 06:13:07;;;;;;;2.3;2.1;;;;;;;34.42;37.34863;937.2405;;;;
2022/08/05 06:15:33;;;;;;;2.2;2;;;;;;;34.54;37.52832;937.2087;;;;
2022/08/05 06:17:59;;;;;;;3.1;2;;;;;;;35.86;35.33984;937.2725;;;;
2022/08/05 06:20:29;;;;;;;3.9;2.2;;;;;;;35.52;36.20703;937.2422;;;;
2022/08/05 06:22:54;;;;;;;2.5;2.3;;;;;;;36.01;34.31152;937.1905;;;;
2022/08/05 06:25:26;;;;;;;2.7;2.4;;;;;;;34.55;37.7334;937.1902;;;;
2022/08/05 06:27:58;;;;;;;2.3;2.1;;;;;;;35.95;34.82715;937.085;;;;
2022/08/05 06:30:29;;;;;;;2.1;2;;;;;;;34.06;37.54785;937.1284;;;;
2022/08/05 06:33:00;;;;;;;3;2.2;;;;;;;34.35;39.10156;937.1221;;;;
2022/08/05 06:35:30;;;;;;;2.3;1.9;;;;;;;36.21;35.68066;937.0883;;;;
2022/08/05 06:37:54;;;;;;;3.3;2.2;;;;;;;35.44;35.62207;937.1245;;;;
2022/08/05 06:40:26;;;;;;;2.9;2.1;;;;;;;36.92;34.53711;937.1494;;;;
2022/08/05 06:42:57;;;;;;;2;1.9;;;;;;;36.64;32.99121;937.1408;;;;
2022/08/05 06:45:28;;;;;;;2.2;2;;;;;;;35.3;34.98242;937.1514;;;;
2022/08/05 06:47:57;;;;;;;3.5;2.2;;;;;;;33.78;37.74219;937.1669;;;;
2022/08/05 06:50:23;;;;;;;3.4;2.4;;;;;;;34.1;37.66016;937.1642;;;;
2022/08/05 06:52:48;;;;;;;2.3;2.1;;;;;;;34.92;37.69141;937.1874;;;;
2022/08/05 06:55:16;;;;;;;2.4;2.2;;;;;;;33.77;37.1875;937.1227;;;;
2022/08/05 06:57:40;;;;;;;2.1;2;;;;;;;33.63;37.65723;937.1342;;;;
2022/08/05 07:00:08;;;;;;;2.6;2.1;;;;;;;34.17;37.04004;937.1202;;;;
2022/08/05 07:02:36;;;;;;;2.6;2;;;;;;;35.82;34.01953;937.1556;;;;
2022/08/05 07:05:02;;;;;;;2.4;2.2;;;;;;;36.13;33.53516;937.1562;;;;
2022/08/05 07:07:28;;;;;;;5.2;2.4;;;;;;;34.19;37.06543;937.2125;;;;
2022/08/05 07:09:55;;;;;;;3.8;2.5;;;;;;;35.37;35.86914;937.2299;;;;
2022/08/05 07:17:13;;;;;;;2.4;1.9;;;;;;;34.83;36.06836;937.2213;;;;
2022/08/05 07:19:38;;;;;;;2.4;2.2;;;;;;;35.33;35.98828;937.1935;;;;
2022/08/05 07:22:03;;;;;;;2.3;2.1;;;;;;;36.78;33.67969;937.1083;;;;
2022/08/05 07:24:31;;;;;;;2.5;2.1;;;;;;;36.9;32.97363;937.1757;;;;
2022/08/05 07:26:56;;;;;;;3;2.3;;;;;;;36.8;32.92871;937.1934;;;;
2022/08/05 07:29:24;;;;;;;2.5;1.9;;;;;;;36.36;34.5918;937.1404;;;;
2022/08/05 07:31:49;;;;;;;3.1;2.1;;;;;;;36;34.44434;937.1533;;;;
2022/08/05 07:34:16;;;;;;;2.6;2.4;;;;;;;35;35.69531;937.1945;;;;
2022/08/05 07:36:41;;;;;;;2.6;2.4;;;;;;;34.02;37.61719;937.1696;;;;
2022/08/05 07:39:12;;;;;;;2.8;2.6;;;;;;;33.26;40.37891;937.1114;;;;
2022/08/05 07:41:37;;;;;;;2.3;2.1;;;;;;;33.2;40.66211;937.1428;;;;
2022/08/05 07:44:04;;;;;;;2.4;2.2;;;;;;;33.12;42.70898;937.166;;;;
2022/08/05 07:46:29;;;;;;;2.7;2.2;;;;;;;32.94;41.50391;937.2075;;;;
2022/08/05 07:49:00;;;;;;;2.4;2.1;;;;;;;33.48;39.70117;937.2101;;;;
2022/08/05 07:51:30;;;;;;;2.2;2;;;;;;;33.7;40.09375;937.3077;;;;
2022/08/05 07:54:01;;;;;;;2.4;2.2;;;;;;;33.82;41.54785;937.2876;;;;
2022/08/05 07:56:30;;;;;;;2.4;2.2;;;;;;;33.56;43.19531;937.3417;;;;
2022/08/05 07:58:55;;;;;;;2.5;2.3;;;;;;;33.29;43.42188;937.3917;;;;
2022/08/05 08:01:26;;;;;;;2.4;2.2;;;;;;;33.68;43.53125;937.4238;;;;
2022/08/05 08:03:52;;;;;;;3.3;2.5;;;;;;;33.26;44.52539;937.3914;;;;
2022/08/05 08:06:22;;;;;;;4.4;2.7;;;;;;;32.52;46.14355;937.5081;;;;
2022/08/05 08:08:50;;;;;;;3.2;2.5;;;;;;;32.3;47.53809;937.5485;;;;
2022/08/05 08:11:15;;;;;;;2.7;2.5;;;;;;;32.3;46.4209;937.567;;;;
2022/08/05 08:13:45;;;;;;;2.6;2.4;;;;;;;31.82;48.33691;937.5403;;;;
2022/08/05 08:16:15;;;;;;;2.5;2.3;;;;;;;31.36;46.02637;937.5489;;;;
2022/08/05 08:18:45;;;;;;;2.9;2.7;;;;;;;31.16;47.13184;937.5778;;;;
2022/08/05 08:21:10;;;;;;;3.3;2.7;;;;;;;31.12;48.10645;937.609;;;;
2022/08/05 08:23:39;;;;;;;2.6;2.4;;;;;;;31.3;47.71875;937.5776;;;;
2022/08/05 08:26:04;;;;;;;4.1;2.5;;;;;;;32.19;44.58789;937.5139;;;;
2022/08/05 08:28:32;;;;;;;4;2.1;;;;;;;32.55;43.20801;937.5959;;;;
2022/08/05 08:31:04;;;;;;;2.7;2.5;;;;;;;33.05;41.65723;937.6172;;;;
2022/08/05 08:33:34;;;;;;;2.6;2.4;;;;;;;32.5;43.51465;937.673;;;;
2022/08/05 08:35:59;;;;;;;3.6;2.5;;;;;;;32.27;43.52832;937.7258;;;;
2022/08/05 08:38:27;;;;;;;2.3;2.1;;;;;;;32.35;43.62109;937.7292;;;;
2022/08/05 08:40:51;;;;;;;2.9;2.3;;;;;;;33.19;41.15332;937.7776;;;;
2022/08/05 08:43:21;;;;;;;2.6;2.4;;;;;;;34.3;37.24316;937.8763;;;;
2022/08/05 08:45:47;;;;;;;2.6;2.1;;;;;;;35.46;34.83887;937.957;;;;
2022/08/05 08:48:12;;;;;;;2.8;2.2;;;;;;;36.19;33.38184;937.9295;;;;
2022/08/05 08:50:37;;;;;;;2.9;2.1;;;;;;;34.74;35.43359;937.9581;;;;
2022/08/05 08:53:02;;;;;;;2.3;2.1;;;;;;;35.57;34.59277;938.0032;;;;
2022/08/05 08:55:29;;;;;;;2.5;2.1;;;;;;;37.3;31.64453;938.0405;;;;
2022/08/05 08:57:54;;;;;;;2.1;1.9;;;;;;;38.77;29.50781;938.0912;;;;
2022/08/05 09:00:19;;;;;;;2;1.8;;;;;;;38.28;30.11914;938.0681;;;;
2022/08/05 09:02:52;;;;;;;2;1.8;;;;;;;38.69;29.38086;938.1033;;;;
2022/08/05 09:05:21;;;;;;;2.2;2;;;;;;;38.12;29.83008;938.0106;;;;
2022/08/05 09:07:51;;;;;;;2;1.9;;;;;;;38.77;28.53418;938.1106;;;;
2022/08/05 09:10:16;;;;;;;3.2;2.1;;;;;;;39.47;26.98145;938.23;;;;
2022/08/05 09:12:44;;;;;;;2.2;1.8;;;;;;;39.94;27.02148;938.2098;;;;
2022/08/05 09:15:09;;;;;;;2.2;2;;;;;;;39.57;28.90039;938.3013;;;;
2022/08/05 09:17:37;;;;;;;2.7;1.9;;;;;;;40;26.70801;938.2113;;;;
2022/08/05 09:20:02;;;;;;;2.8;2;;;;;;;40.12;27.10547;938.2074;;;;
2022/08/05 09:22:30;;;;;;;2.1;1.9;;;;;;;39.49;27.00781;938.2274;;;;
2022/08/05 09:24:55;;;;;;;2.2;1.9;;;;;;;39.58;27.8291;938.1557;;;;
2022/08/05 09:27:23;;;;;;;3.4;2.2;;;;;;;39.55;27.74219;938.2045;;;;
2022/08/05 09:29:48;;;;;;;3.3;2.1;;;;;;;38.31;29.18652;938.1627;;;;
2022/08/05 09:32:13;;;;;;;5.4;2.5;;;;;;;37.08;30.63574;938.2147;;;;
2022/08/05 09:34:41;;;;;;;5;2.3;;;;;;;35.78;34.05273;938.2253;;;;
2022/08/05 09:37:11;;;;;;;2.3;2.1;;;;;;;35.98;33.76563;938.2212;;;;
2022/08/05 09:39:36;;;;;;;3.5;2.4;;;;;;;35.28;35.87402;938.2297;;;;
2022/08/05 09:42:06;;;;;;;2.5;2.3;;;;;;;35.45;34.52344;938.1501;;;;
2022/08/05 09:44:35;;;;;;;2.9;2.5;;;;;;;34.61;36.1709;938.1362;;;;
2022/08/05 09:47:02;;;;;;;2.6;1.9;;;;;;;34.78;35.91992;938.128;;;;
2022/08/05 09:49:28;;;;;;;2.6;2.1;;;;;;;35.26;34.30371;938.2288;;;;
2022/08/05 09:51:54;;;;;;;3.1;2.5;;;;;;;34.53;35.36914;938.2225;;;;
2022/08/05 09:54:19;;;;;;;2.9;2.4;;;;;;;34.29;37.67578;938.2053;;;;
2022/08/05 09:56:46;;;;;;;2.9;2.4;;;;;;;34.6;35.93066;938.2425;;;;
2022/08/05 09:59:10;;;;;;;3.6;2.2;;;;;;;34.11;37.22656;938.213;;;;
2022/08/05 10:01:35;;;;;;;2.8;2.4;;;;;;;34.31;37.13574;938.2509;;;;
2022/08/05 10:04:05;;;;;;;4.2;2.9;;;;;;;34.83;35.63477;938.2177;;;;
2022/08/05 10:06:33;;;;;;;5.3;2.3;;;;;;;33.53;38.86426;938.2564;;;;
2022/08/05 10:08:58;;;;;;;4.5;2.7;;;;;;;32.25;41.29688;938.1817;;;;
2022/08/05 10:11:27;;;;;;;3.2;2.3;;;;;;;32.16;40.49707;938.264;;;;
2022/08/05 10:13:52;;;;;;;3.5;2.5;;;;;;;32.7;40.08887;938.2682;;;;
2022/08/05 10:16:20;;;;;;;3.7;2.4;;;;;;;33.46;38.12402;938.2612;;;;
2022/08/05 10:18:56;;;;;;;2.8;2.4;;;;;;;33.55;40.16406;938.2047;;;;
2022/08/05 10:21:22;;;;;;;3.2;2.4;;;;;;;34.22;40.48828;938.2776;;;;
2022/08/05 10:23:51;;;;;;;2.8;2.6;;;;;;;34.57;37.18066;938.2567;;;;
2022/08/05 10:26:16;;;;;;;2.8;2.5;;;;;;;35.22;34.2998;938.2371;;;;
2022/08/05 10:28:43;;;;;;;4.9;2.4;;;;;;;34.66;37.9707;938.1845;;;;
2022/08/05 10:31:08;;;;;;;3.4;2.5;;;;;;;34.6;37.02637;938.2486;;;;
2022/08/05 10:33:36;;;;;;;3.2;2.5;;;;;;;34.65;36.2959;938.2455;;;;
2022/08/05 10:36:02;;;;;;;4.5;3;;;;;;;33.17;39.70996;938.2883;;;;
2022/08/05 10:38:26;;;;;;;4.1;2.6;;;;;;;33.64;37.85059;938.2632;;;;
2022/08/05 10:40:52;;;;;;;6.8;2.8;;;;;;;33.92;39.18555;938.2888;;;;
2022/08/05 10:43:21;;;;;;;3.4;2.2;;;;;;;34.33;36.53418;938.3269;;;;
2022/08/05 10:45:46;;;;;;;4.7;2.5;;;;;;;34.52;37.43066;938.2831;;;;
2022/08/05 10:48:13;;;;;;;5.6;2.9;;;;;;;34.57;37.58984;938.2803;;;;
2022/08/05 10:50:38;;;;;;;4.6;2.4;;;;;;;33.95;37.97363;938.2484;;;;
2022/08/05 10:53:03;;;;;;;3.6;2.5;;;;;;;34.75;37.18359;938.3114;;;;
2022/08/05 10:55:29;;;;;;;3.4;2.6;;;;;;;34.93;35.55762;938.2151;;;;
2022/08/05 10:57:55;;;;;;;6.2;2.8;;;;;;;33.41;41.16113;938.288;;;;
2022/08/05 11:00:21;;;;;;;3.7;2.7;;;;;;;33.86;38.98828;938.2651;;;;
2022/08/05 11:02:51;;;;;;;3.3;2.7;;;;;;;34.87;37.63965;938.3141;;;;
2022/08/05 11:05:16;;;;;;;4.2;2.4;;;;;;;35.23;35.90723;938.2908;;;;
2022/08/05 11:07:42;;;;;;;3.8;2.6;;;;;;;35.51;36.56934;938.2722;;;;
2022/08/05 11:10:07;;;;;;;5.4;3.1;;;;;;;35.62;36.68652;938.3047;;;;
2022/08/05 11:12:50;;;;;;;3.1;2.5;;;;;;;34.96;36.39258;938.4011;;;;
2022/08/05 11:15:15;;;;;;;3.3;2.6;;;;;;;34.48;36.83594;938.3582;;;;
2022/08/05 11:17:43;;;;;;;4.2;2.9;;;;;;;33.85;39.90137;938.2687;;;;
2022/08/05 11:20:09;;;;;;;4.4;3;;;;;;;32.75;40.50195;938.3282;;;;
2022/08/05 11:22:38;;;;;;;3.4;3.1;;;;;;;31.25;45.72852;938.2906;;;;
2022/08/05 11:25:03;;;;;;;4.6;2.9;;;;;;;31.22;45.89258;938.2916;;;;
2022/08/05 11:27:31;;;;;;;5;3.1;;;;;;;30.73;47.57617;938.223;;;;
2022/08/05 11:29:56;;;;;;;6.1;3;;;;;;;31.49;44.4834;938.3278;;;;
2022/08/05 11:32:23;;;;;;;3.3;2.9;;;;;;;31.61;45.1543;938.3727;;;;
2022/08/05 11:34:48;;;;;;;3.7;2.8;;;;;;;32.21;43.01953;938.4152;;;;
2022/08/05 11:37:13;;;;;;;4.2;3;;;;;;;32.15;42.1748;938.4363;;;;
2022/08/05 11:39:42;;;;;;;5.3;2.9;;;;;;;31.94;42.27539;938.3971;;;;
2022/08/05 11:42:12;;;;;;;5.6;3.2;;;;;;;30.98;45.74902;938.3423;;;;
2022/08/05 11:44:37;;;;;;;5.1;3.4;;;;;;;30.71;45.79297;938.4253;;;;
2022/08/05 11:47:04;;;;;;;4.2;3.3;;;;;;;30.48;47.02441;938.4197;;;;
2022/08/05 11:49:29;;;;;;;3.1;2.8;;;;;;;30.42;46.02734;938.3903;;;;
2022/08/05 11:52:25;;;;;;;3.8;3.1;;;;;;;30.32;46.05273;938.4267;;;;
2022/08/05 11:54:47;;;;;;;6.2;3.2;;;;;;;30.3;46.48047;938.4311;;;;
2022/08/05 11:57:15;;;;;;;4.2;3.3;;;;;;;30.14;47.14453;938.4098;;;;
2022/08/05 11:59:40;;;;;;;4.4;3.2;;;;;;;29.76;47.73633;938.4327;;;;
2022/08/05 12:02:10;;;;;;;4.2;3.2;;;;;;;29.81;48.06348;938.4645;;;;
2022/08/05 12:04:35;;;;;;;4.7;3;;;;;;;29.51;48.98535;938.5089;;;;
2022/08/05 12:07:05;;;;;;;4.5;3.4;;;;;;;29.24;49.34863;938.4403;;;;
2022/08/05 12:09:36;;;;;;;5.2;3.3;;;;;;;29.38;49.24512;938.4127;;;;
2022/08/05 12:12:01;;;;;;;4.4;3.2;;;;;;;29.36;49.73145;938.4556;;;;
2022/08/05 12:14:26;;;;;;;4.6;3.2;;;;;;;29.27;49.23242;938.5017;;;;
2022/08/05 12:16:52;;;;;;;8.3;3.6;;;;;;;29.07;49.91504;938.5405;;;;
2022/08/05 12:19:25;;;;;;;4;3.3;;;;;;;29.14;50.19531;938.5251;;;;
2022/08/05 12:21:43;;;;;;;4.6;3.1;;;;;;;28.63;52.25586;938.5519;;;;
2022/08/05 12:24:09;;;;;;;4.4;3.3;;;;;;;28.48;53.93945;938.5893;;;;
2022/08/05 12:26:37;;;;;;;4.4;3.3;;;;;;;28.31;54.84668;938.6039;;;;
2022/08/05 12:29:01;;;;;;;4.3;3.2;;;;;;;28.08;55.66211;938.5728;;;;
2022/08/05 12:31:28;;;;;;;5.5;3.8;;;;;;;28.12;58.44727;938.6146;;;;
2022/08/05 12:33:53;;;;;;;4.7;3.2;;;;;;;27.78;59.54297;938.6072;;;;
2022/08/05 12:36:20;;;;;;;3.8;3.4;;;;;;;27.69;59.16406;938.5829;;;;
2022/08/05 12:38:45;;;;;;;6.4;3.5;;;;;;;27.54;59.29688;938.5519;;;;
2022/08/05 12:41:13;;;;;;;5.6;3.2;;;;;;;27.53;58.83203;938.6049;;;;
2022/08/05 12:43:38;;;;;;;5.4;3.3;;;;;;;27.41;59.84961;938.6486;;;;
2022/08/05 12:46:06;;;;;;;5.6;3.6;;;;;;;27.36;60.49512;938.7643;;;;
2022/08/05 12:48:31;;;;;;;3.8;3.4;;;;;;;27.48;60.72559;938.7988;;;;
2022/08/05 12:50:57;;;;;;;4.7;3.5;;;;;;;27.54;62.46484;938.7964;;;;
2022/08/05 12:53:22;;;;;;;5.1;3.3;;;;;;;27.56;62.04004;938.7625;;;;
2022/08/05 12:55:47;;;;;;;4.6;3.7;;;;;;;27.54;63.03516;938.6664;;;;
2022/08/05 12:58:15;;;;;;;5.3;4;;;;;;;27.38;62.35938;938.738;;;;
2022/08/05 13:00:40;;;;;;;6.3;3.9;;;;;;;27.17;63.6709;938.6998;;;;
2022/08/05 13:03:05;;;;;;;4.4;4;;;;;;;27.18;63.50684;938.8153;;;;
2022/08/05 13:05:36;;;;;;;5.8;3.4;;;;;;;27.3;64.625;938.874;;;;
2022/08/05 13:08:03;;;;;;;4.4;4;;;;;;;27.32;66.96582;938.9203;;;;
2022/08/05 13:10:29;;;;;;;4.9;4;;;;;;;27.27;67.87207;938.9693;;;;
2022/08/05 13:12:53;;;;;;;5.5;3.7;;;;;;;26.8;68.1084;938.8945;;;;
2022/08/05 13:15:21;;;;;;;5;4;;;;;;;26.64;69.39941;938.8088;;;;
2022/08/05 13:17:46;;;;;;;5.2;3.9;;;;;;;26.79;70.42871;938.7595;;;;
2022/08/05 13:20:17;;;;;;;4.2;3.7;;;;;;;26.41;70.2373;938.6309;;;;
2022/08/05 13:22:46;;;;;;;5.2;4;;;;;;;26.3;71.28711;938.6875;;;;
2022/08/05 13:25:18;;;;;;;4.8;4;;;;;;;26.09;71.12402;938.5958;;;;
2022/08/05 13:27:43;;;;;;;5.9;4.1;;;;;;;25.88;73.77344;938.562;;;;
2022/08/05 13:30:14;;;;;;;7.7;4.6;;;;;;;25.84;74.87891;938.4594;;;;
2022/08/05 13:32:38;;;;;;;5.5;4.3;;;;;;;25.9;74.71191;938.4482;;;;
2022/08/05 13:35:09;;;;;;;4.8;4.3;;;;;;;25.75;75.41895;938.4048;;;;
2022/08/05 13:37:33;;;;;;;5.4;4.3;;;;;;;25.66;74.05664;938.4067;;;;
2022/08/05 13:40:00;;;;;;;5.1;4.6;;;;;;;25.65;74.43359;938.4242;;;;
2022/08/05 13:42:25;;;;;;;7.7;4;;;;;;;25.84;74.02734;938.5076;;;;
2022/08/05 13:44:52;;;;;;;6.2;4.6;;;;;;;25.93;73.56934;938.6297;;;;
2022/08/05 13:47:17;;;;;;;5.3;4.4;;;;;;;26;74.27734;938.5804;;;;
2022/08/05 13:49:43;;;;;;;5;4.5;;;;;;;26.02;72.53125;938.555;;;;
2022/08/05 13:52:08;;;;;;;5.9;4.3;;;;;;;26.05;72.08789;938.5012;;;;
2022/08/05 13:54:37;;;;;;;5.9;4.6;;;;;;;26.31;71.6084;938.4338;;;;
2022/08/05 13:57:02;;;;;;;4.5;4.1;;;;;;;26.6;70.5293;938.3723;;;;
2022/08/05 13:59:29;;;;;;;5.3;4;;;;;;;27.03;69.14063;938.3403;;;;
2022/08/05 14:01:54;;;;;;;8;4;;;;;;;27.21;70.1748;938.2667;;;;
2022/08/05 14:06:48;;;;;;;4.3;3.9;;;;;;;27.56;65.10254;938.1368;;;;
2022/08/05 14:09:18;;;;;;;5.6;3.9;;;;;;;27.47;65.07715;938.0602;;;;
2022/08/05 14:11:43;;;;;;;5;3.8;;;;;;;27.76;64.31152;937.9745;;;;
2022/08/05 14:14:12;;;;;;;5.3;3.8;;;;;;;27.63;64.47266;937.9628;;;;
2022/08/05 14:16:35;;;;;;;4.1;3.7;;;;;;;27.58;63.92969;937.868;;;;
2022/08/05 14:19:01;;;;;;;5.1;3.8;;;;;;;27.61;62.42773;937.8499;;;;
2022/08/05 14:21:26;;;;;;;6.8;4.2;;;;;;;27.57;64.6416;937.7357;;;;
2022/08/05 14:23:55;;;;;;;5;4;;;;;;;27.44;65.71387;937.6208;;;;
2022/08/05 14:26:20;;;;;;;4.4;3.8;;;;;;;27.55;65.99121;937.5366;;;;
2022/08/05 14:28:45;;;;;;;5.2;3.7;;;;;;;27.56;66.66992;937.4788;;;;
2022/08/05 14:31:10;;;;;;;4.3;3.8;;;;;;;27.65;64.66504;937.4325;;;;
2022/08/05 14:33:38;;;;;;;3.9;3.5;;;;;;;27.67;63.71875;937.4205;;;;
2022/08/05 14:36:04;;;;;;;4.6;3.9;;;;;;;27.92;62.89746;937.3386;;;;
2022/08/05 14:38:32;;;;;;;4.9;4.2;;;;;;;27.99;62.20703;937.2915;;;;
2022/08/05 14:40:57;;;;;;;4.3;3.8;;;;;;;28.13;60.94434;937.3195;;;;
2022/08/05 14:43:27;;;;;;;4.8;4.1;;;;;;;28.21;59.46973;937.3201;;;;
2022/08/05 14:45:52;;;;;;;4.8;3.4;;;;;;;28.21;58.06738;937.2563;;;;
2022/08/05 14:48:20;;;;;;;4.8;3.4;;;;;;;28.26;58.76172;937.2043;;;;
2022/08/05 14:50:45;;;;;;;4;3.6;;;;;;;28.63;57.87207;937.243;;;;
2022/08/05 14:53:13;;;;;;;5.4;3.6;;;;;;;28.68;56.00879;937.3354;;;;
2022/08/05 14:55:37;;;;;;;4.3;3.3;;;;;;;28.61;55.69141;937.3203;;;;
2022/08/05 14:58:04;;;;;;;4.8;4;;;;;;;28.7;54.65625;937.3969;;;;
2022/08/05 15:00:29;;;;;;;4.9;3.5;;;;;;;28.72;54.41992;937.3248;;;;
2022/08/05 15:02:59;;;;;;;4.9;3.4;;;;;;;28.78;53.4043;937.2836;;;;
2022/08/05 15:05:25;;;;;;;4;3.4;;;;;;;29.04;55.24414;937.2808;;;;
2022/08/05 15:07:52;;;;;;;4.3;3.9;;;;;;;28.85;51.5918;937.2902;;;;
2022/08/05 15:10:21;;;;;;;4.2;3.5;;;;;;;29.14;52.31543;937.3953;;;;
2022/08/05 15:12:46;;;;;;;4;3.2;;;;;;;29.41;50.4873;937.2734;;;;
2022/08/05 15:15:11;;;;;;;6;3.7;;;;;;;29.55;51.24219;937.2378;;;;
2022/08/05 15:17:42;;;;;;;5.1;3.4;;;;;;;29.64;51.27637;937.2431;;;;
2022/08/05 15:20:07;;;;;;;3.9;3.3;;;;;;;29.64;50.82324;937.192;;;;
2022/08/05 15:22:35;;;;;;;5.2;3.6;;;;;;;29.38;51.31836;937.2509;;;;
2022/08/05 15:25:00;;;;;;;6.4;3.6;;;;;;;29.46;51.43457;937.2051;;;;
2022/08/05 15:27:27;;;;;;;3.8;3.2;;;;;;;29.61;51.82227;937.195;;;;
2022/08/05 15:29:52;;;;;;;5.8;3.6;;;;;;;29.31;52.29883;937.1255;;;;
2022/08/05 15:32:18;;;;;;;4.4;3.5;;;;;;;29.25;52.2207;937.1666;;;;
2022/08/05 15:34:43;;;;;;;3.6;3.3;;;;;;;29.36;52.5791;937.2381;;;;
2022/08/05 15:37:10;;;;;;;4;3.5;;;;;;;29.15;53.35254;937.2241;;;;
2022/08/05 15:39:35;;;;;;;3.9;3.4;;;;;;;29.19;53.27344;937.1867;;;;
2022/08/05 15:42:03;;;;;;;4.7;3.2;;;;;;;29.35;53.61426;937.1642;;;;
2022/08/05 15:44:28;;;;;;;3.5;3.1;;;;;;;29.33;52.68262;937.1213;;;;